createdAt,value
2018-04-15T00:00:31.874Z,988.97
2018-04-15T00:01:32.094Z,988.99
2018-04-15T00:02:32.301Z,988.92
2018-04-15T00:03:32.514Z,988.91
2018-04-15T00:04:34.286Z,988.87
2018-04-15T00:05:32.862Z,988.89
2018-04-15T00:06:33.079Z,988.88
2018-04-15T00:07:33.311Z,988.86
2018-04-15T00:08:35.055Z,988.86
2018-04-15T00:09:33.650Z,988.85
2018-04-15T00:10:33.856Z,988.85
2018-04-15T00:11:34.068Z,988.83
2018-04-15T00:12:34.283Z,988.83
2018-04-15T00:13:36.289Z,988.81
2018-04-15T00:14:34.617Z,988.80
2018-04-15T00:15:34.824Z,988.77
2018-04-15T00:16:36.781Z,988.78
2018-04-15T00:17:35.242Z,988.76
2018-04-15T00:18:35.456Z,988.79
2018-04-15T00:19:35.677Z,988.74
2018-04-15T00:20:37.782Z,988.73
2018-04-15T00:21:36.120Z,988.70
2018-04-15T00:22:36.323Z,988.67
2018-04-15T00:23:36.539Z,988.68
2018-04-15T00:24:36.744Z,988.69
2018-04-15T00:25:36.968Z,988.65
2018-04-15T00:26:37.168Z,988.62
2018-04-15T00:27:37.380Z,988.63
2018-04-15T00:28:37.585Z,988.64
2018-04-15T00:29:37.796Z,988.64
2018-04-15T00:30:38.002Z,988.67
2018-04-15T00:31:38.216Z,988.68
2018-04-15T00:32:38.421Z,988.73
2018-04-15T00:33:38.636Z,988.71
2018-04-15T00:34:38.888Z,988.77
2018-04-15T00:35:39.056Z,988.81
2018-04-15T00:36:39.268Z,988.74
2018-04-15T00:37:39.484Z,988.70
2018-04-15T00:38:39.695Z,988.69
2018-04-15T00:39:39.913Z,988.66
2018-04-15T00:40:40.129Z,988.66
2018-04-15T00:41:40.338Z,988.60
2018-04-15T00:42:40.569Z,988.59
2018-04-15T00:43:40.784Z,988.62
2018-04-15T00:44:41.031Z,988.59
2018-04-15T00:45:41.201Z,988.52
2018-04-15T00:46:43.284Z,988.52
2018-04-15T00:47:41.622Z,988.54
2018-04-15T00:48:43.788Z,988.51
2018-04-15T00:49:43.783Z,988.46
2018-04-15T00:50:42.130Z,988.46
2018-04-15T00:51:42.340Z,988.45
2018-04-15T00:52:43.563Z,988.47
2018-04-15T00:53:42.769Z,988.47
2018-04-15T00:54:42.984Z,988.44
2018-04-15T00:55:43.191Z,988.47
2018-04-15T00:56:43.408Z,988.44
2018-04-15T00:57:43.617Z,988.44
2018-04-15T00:58:43.832Z,988.47
2018-04-15T00:59:44.044Z,988.45
2018-04-15T01:00:44.258Z,988.45
2018-04-15T01:01:46.304Z,988.44
2018-04-15T01:02:46.298Z,988.45
2018-04-15T01:03:44.739Z,988.44
2018-04-15T01:04:44.956Z,988.43
2018-04-15T01:05:45.157Z,988.40
2018-04-15T01:06:45.387Z,988.42
2018-04-15T01:07:45.584Z,988.38
2018-04-15T01:08:45.823Z,988.38
2018-04-15T01:09:46.043Z,988.40
2018-04-15T01:10:46.248Z,988.37
2018-04-15T01:11:46.473Z,988.38
2018-04-15T01:12:46.681Z,988.38
2018-04-15T01:13:46.881Z,988.39
2018-04-15T01:14:47.112Z,988.43
2018-04-15T01:15:47.305Z,988.39
2018-04-15T01:16:47.517Z,988.40
2018-04-15T01:17:49.282Z,988.44
2018-04-15T01:18:47.890Z,988.42
2018-04-15T01:19:48.088Z,988.43
2018-04-15T01:20:49.826Z,988.38
2018-04-15T01:21:48.507Z,988.35
2018-04-15T01:22:50.306Z,988.28
2018-04-15T01:23:48.870Z,988.34
2018-04-15T01:24:49.076Z,988.35
2018-04-15T01:25:49.290Z,988.31
2018-04-15T01:26:49.504Z,988.32
2018-04-15T01:27:51.288Z,988.31
2018-04-15T01:28:49.875Z,988.27
2018-04-15T01:29:50.094Z,988.32
2018-04-15T01:30:50.303Z,988.32
2018-04-15T01:31:52.292Z,988.25
2018-04-15T01:32:50.753Z,988.24
2018-04-15T01:33:50.961Z,988.26
2018-04-15T01:34:51.176Z,988.26
2018-04-15T01:35:53.285Z,988.26
2018-04-15T01:36:51.631Z,988.26
2018-04-15T01:37:51.844Z,988.23
2018-04-15T01:38:52.055Z,988.26
2018-04-15T01:39:52.272Z,988.23
2018-04-15T01:40:52.473Z,988.26
2018-04-15T01:41:54.299Z,988.29
2018-04-15T01:42:52.891Z,988.25
2018-04-15T01:43:53.096Z,988.24
2018-04-15T01:44:53.331Z,988.25
2018-04-15T01:45:55.293Z,988.24
2018-04-15T01:46:53.755Z,988.18
2018-04-15T01:47:55.793Z,988.19
2018-04-15T01:48:54.125Z,988.19
2018-04-15T01:49:55.837Z,988.17
2018-04-15T01:50:54.558Z,988.17
2018-04-15T01:51:54.760Z,988.14
2018-04-15T01:52:54.976Z,988.14
2018-04-15T01:53:55.191Z,988.15
2018-04-15T01:54:55.399Z,988.13
2018-04-15T01:55:55.603Z,988.15
2018-04-15T01:56:55.816Z,988.10
2018-04-15T01:57:56.018Z,988.13
2018-04-15T01:58:56.230Z,988.14
2018-04-15T01:59:58.288Z,988.13
2018-04-15T02:00:59.285Z,988.15
2018-04-15T02:01:56.754Z,988.18
2018-04-15T02:02:56.965Z,988.21
2018-04-15T02:03:57.181Z,988.21
2018-04-15T02:04:57.395Z,988.20
2018-04-15T02:05:57.610Z,988.22
2018-04-15T02:06:57.830Z,988.26
2018-04-15T02:07:58.053Z,988.25
2018-04-15T02:08:58.255Z,988.22
2018-04-15T02:09:58.472Z,988.28
2018-04-15T02:10:58.687Z,988.25
2018-04-15T02:11:58.882Z,988.23
2018-04-15T02:12:59.094Z,988.25
2018-04-15T02:13:59.310Z,988.23
2018-04-15T02:14:59.513Z,988.24
2018-04-15T02:15:59.726Z,988.23
2018-04-15T02:16:59.933Z,988.24
2018-04-15T02:18:00.151Z,988.20
2018-04-15T02:19:00.361Z,988.22
2018-04-15T02:20:00.570Z,988.16
2018-04-15T02:21:00.792Z,988.13
2018-04-15T02:22:01.000Z,988.10
2018-04-15T02:23:02.789Z,988.12
2018-04-15T02:24:01.387Z,988.09
2018-04-15T02:25:01.587Z,988.07
2018-04-15T02:26:01.796Z,988.04
2018-04-15T02:27:02.000Z,988.04
2018-04-15T02:28:03.794Z,988.00
2018-04-15T02:29:02.387Z,988.03
2018-04-15T02:30:02.598Z,988.02
2018-04-15T02:31:02.811Z,988.05
2018-04-15T02:32:04.797Z,988.01
2018-04-15T02:33:03.253Z,987.99
2018-04-15T02:34:03.464Z,988.01
2018-04-15T02:35:03.690Z,987.97
2018-04-15T02:36:03.945Z,987.96
2018-04-15T02:37:04.131Z,987.90
2018-04-15T02:38:04.343Z,987.89
2018-04-15T02:39:04.546Z,987.86
2018-04-15T02:40:06.291Z,987.84
2018-04-15T02:41:04.868Z,987.86
2018-04-15T02:42:05.075Z,987.82
2018-04-15T02:43:05.338Z,987.81
2018-04-15T02:44:05.509Z,987.82
2018-04-15T02:45:05.713Z,987.78
2018-04-15T02:46:05.939Z,987.82
2018-04-15T02:47:06.157Z,987.77
2018-04-15T02:48:08.291Z,987.79
2018-04-15T02:49:06.511Z,987.78
2018-04-15T02:50:06.721Z,987.75
2018-04-15T02:51:08.797Z,987.74
2018-04-15T02:52:07.132Z,987.74
2018-04-15T02:53:07.351Z,987.74
2018-04-15T02:54:07.566Z,987.74
2018-04-15T02:55:08.585Z,987.75
2018-04-15T02:56:07.937Z,987.74
2018-04-15T02:57:08.147Z,987.72
2018-04-15T02:58:08.361Z,987.72
2018-04-15T02:59:08.579Z,987.69
2018-04-15T03:00:08.791Z,987.70
2018-04-15T03:01:12.883Z,987.67
2018-04-15T03:02:09.213Z,987.70
2018-04-15T03:03:09.420Z,987.65
2018-04-15T03:04:09.638Z,987.68
2018-04-15T03:05:09.850Z,987.70
2018-04-15T03:06:10.054Z,987.71
2018-04-15T03:07:10.308Z,987.69
2018-04-15T03:08:10.487Z,987.72
2018-04-15T03:09:10.690Z,987.78
2018-04-15T03:10:10.897Z,987.76
2018-04-15T03:11:11.138Z,987.79
2018-04-15T03:12:14.295Z,987.82
2018-04-15T03:13:11.515Z,987.81
2018-04-15T03:14:11.721Z,987.83
2018-04-15T03:15:11.928Z,987.83
2018-04-15T03:16:12.143Z,987.78
2018-04-15T03:17:12.365Z,987.79
2018-04-15T03:18:12.575Z,987.75
2018-04-15T03:19:12.793Z,987.74
2018-04-15T03:20:13.002Z,987.67
2018-04-15T03:21:14.799Z,987.66
2018-04-15T03:22:13.397Z,987.66
2018-04-15T03:23:13.593Z,987.64
2018-04-15T03:24:13.805Z,987.62
2018-04-15T03:25:14.042Z,987.67
2018-04-15T03:26:14.253Z,987.66
2018-04-15T03:27:14.454Z,987.69
2018-04-15T03:28:14.667Z,987.64
2018-04-15T03:29:14.885Z,987.62
2018-04-15T03:30:15.130Z,987.62
2018-04-15T03:31:15.538Z,987.61
2018-04-15T03:32:15.421Z,987.60
2018-04-15T03:33:15.532Z,987.57
2018-04-15T03:34:15.646Z,987.57
2018-04-15T03:35:15.858Z,987.55
2018-04-15T03:36:17.807Z,987.55
2018-04-15T03:37:16.280Z,987.54
2018-04-15T03:38:16.629Z,987.55
2018-04-15T03:39:16.676Z,987.53
2018-04-15T03:40:18.315Z,987.52
2018-04-15T03:41:16.900Z,987.53
2018-04-15T03:42:17.111Z,987.51
2018-04-15T03:43:17.309Z,987.50
2018-04-15T03:44:17.528Z,987.56
2018-04-15T03:45:22.513Z,987.51
2018-04-15T03:46:17.841Z,987.49
2018-04-15T03:47:19.791Z,987.48
2018-04-15T03:48:18.271Z,987.44
2018-04-15T03:49:18.474Z,987.46
2018-04-15T03:50:18.693Z,987.47
2018-04-15T03:51:21.808Z,987.49
2018-04-15T03:52:19.032Z,987.52
2018-04-15T03:53:19.248Z,987.48
2018-04-15T03:54:21.291Z,987.52
2018-04-15T03:55:19.629Z,987.47
2018-04-15T03:56:19.838Z,987.43
2018-04-15T03:57:20.076Z,987.46
2018-04-15T03:58:20.264Z,987.42
2018-04-15T03:59:20.477Z,987.45
2018-04-15T04:00:22.307Z,987.43
2018-04-15T04:01:20.914Z,987.47
2018-04-15T04:02:21.140Z,987.43
2018-04-15T04:03:21.353Z,987.41
2018-04-15T04:04:21.560Z,987.37
2018-04-15T04:05:21.777Z,987.36
2018-04-15T04:06:22.009Z,987.32
2018-04-15T04:07:22.203Z,987.33
2018-04-15T04:08:22.416Z,987.32
2018-04-15T04:09:23.406Z,987.28
2018-04-15T04:10:24.491Z,987.26
2018-04-15T04:11:22.953Z,987.24
2018-04-15T04:12:23.153Z,987.30
2018-04-15T04:13:23.368Z,987.29
2018-04-15T04:14:23.585Z,987.30
2018-04-15T04:15:23.784Z,987.34
2018-04-15T04:16:24.001Z,987.31
2018-04-15T04:17:24.208Z,987.30
2018-04-15T04:18:24.419Z,987.33
2018-04-15T04:19:24.635Z,987.34
2018-04-15T04:20:24.859Z,987.31
2018-04-15T04:21:25.061Z,987.30
2018-04-15T04:22:25.256Z,987.29
2018-04-15T04:23:25.460Z,987.27
2018-04-15T04:24:25.682Z,987.24
2018-04-15T04:25:25.885Z,987.27
2018-04-15T04:26:26.107Z,987.26
2018-04-15T04:27:26.317Z,987.26
2018-04-15T04:28:26.581Z,987.22
2018-04-15T04:29:26.756Z,987.25
2018-04-15T04:30:26.891Z,987.21
2018-04-15T04:31:27.062Z,987.22
2018-04-15T04:32:27.282Z,987.21
2018-04-15T04:33:27.495Z,987.10
2018-04-15T04:34:27.705Z,987.10
2018-04-15T04:35:27.922Z,987.12
2018-04-15T04:36:28.160Z,987.11
2018-04-15T04:37:28.356Z,987.04
2018-04-15T04:38:28.588Z,987.06
2018-04-15T04:39:30.043Z,987.02
2018-04-15T04:40:29.906Z,987.06
2018-04-15T04:41:30.135Z,987.09
2018-04-15T04:42:32.299Z,987.06
2018-04-15T04:43:29.500Z,987.08
2018-04-15T04:44:29.699Z,987.09
2018-04-15T04:45:29.919Z,987.09
2018-04-15T04:46:30.127Z,987.06
2018-04-15T04:47:32.290Z,987.02
2018-04-15T04:48:30.505Z,987.03
2018-04-15T04:49:30.705Z,987.06
2018-04-15T04:50:32.791Z,987.05
2018-04-15T04:51:31.122Z,987.01
2018-04-15T04:52:33.289Z,986.99
2018-04-15T04:53:31.509Z,987.02
2018-04-15T04:54:31.737Z,987.00
2018-04-15T04:55:31.936Z,987.06
2018-04-15T04:56:32.045Z,987.00
2018-04-15T04:57:32.257Z,987.00
2018-04-15T04:58:32.471Z,987.00
2018-04-15T04:59:32.682Z,986.99
2018-04-15T05:00:32.898Z,986.96
2018-04-15T05:01:33.106Z,986.97
2018-04-15T05:02:33.324Z,986.97
2018-04-15T05:03:33.536Z,986.98
2018-04-15T05:04:33.750Z,987.01
2018-04-15T05:05:33.950Z,987.02
2018-04-15T05:06:34.274Z,986.96
2018-04-15T05:07:34.301Z,987.00
2018-04-15T05:08:34.522Z,987.02
2018-04-15T05:09:34.729Z,986.99
2018-04-15T05:10:36.794Z,986.97
2018-04-15T05:11:35.168Z,986.97
2018-04-15T05:12:36.791Z,986.95
2018-04-15T05:13:35.370Z,986.97
2018-04-15T05:14:35.591Z,986.97
2018-04-15T05:15:35.799Z,986.96
2018-04-15T05:16:36.011Z,986.94
2018-04-15T05:17:36.242Z,986.92
2018-04-15T05:18:37.710Z,986.92
2018-04-15T05:19:36.689Z,986.92
2018-04-15T05:20:36.904Z,986.89
2018-04-15T05:21:37.123Z,986.89
2018-04-15T05:22:37.332Z,986.90
2018-04-15T05:23:37.535Z,986.91
2018-04-15T05:24:37.756Z,986.96
2018-04-15T05:25:37.978Z,987.00
2018-04-15T05:26:38.189Z,986.96
2018-04-15T05:27:38.577Z,986.96
2018-04-15T05:28:38.616Z,986.91
2018-04-15T05:29:38.828Z,986.89
2018-04-15T05:30:39.048Z,986.90
2018-04-15T05:31:39.250Z,986.88
2018-04-15T05:32:39.469Z,986.91
2018-04-15T05:33:39.671Z,986.87
2018-04-15T05:34:39.881Z,986.87
2018-04-15T05:35:40.101Z,986.86
2018-04-15T05:36:40.331Z,986.90
2018-04-15T05:37:40.514Z,986.90
2018-04-15T05:38:40.716Z,986.90
2018-04-15T05:39:40.932Z,986.92
2018-04-15T05:40:41.153Z,986.90
2018-04-15T05:41:41.352Z,986.93
2018-04-15T05:42:41.591Z,986.91
2018-04-15T05:43:41.786Z,986.93
2018-04-15T05:44:41.988Z,986.95
2018-04-15T05:45:42.197Z,986.94
2018-04-15T05:46:42.415Z,986.88
2018-04-15T05:47:42.635Z,986.91
2018-04-15T05:48:42.838Z,986.89
2018-04-15T05:49:43.053Z,986.90
2018-04-15T05:50:43.254Z,986.93
2018-04-15T05:51:43.466Z,986.93
2018-04-15T05:52:45.302Z,986.90
2018-04-15T05:53:45.827Z,986.97
2018-04-15T05:54:44.027Z,986.96
2018-04-15T05:55:44.237Z,986.93
2018-04-15T05:56:44.453Z,986.98
2018-04-15T05:57:44.652Z,986.97
2018-04-15T05:58:44.858Z,986.96
2018-04-15T05:59:45.083Z,986.96
2018-04-15T06:00:45.301Z,986.94
2018-04-15T06:01:45.505Z,986.97
2018-04-15T06:02:45.723Z,987.00
2018-04-15T06:03:45.924Z,986.95
2018-04-15T06:04:46.136Z,987.03
2018-04-15T06:05:46.352Z,987.00
2018-04-15T06:06:49.295Z,987.05
2018-04-15T06:07:46.769Z,987.08
2018-04-15T06:08:46.977Z,987.11
2018-04-15T06:09:48.821Z,987.12
2018-04-15T06:10:47.395Z,987.14
2018-04-15T06:11:47.602Z,987.13
2018-04-15T06:12:47.807Z,987.13
2018-04-15T06:13:48.026Z,987.04
2018-04-15T06:14:48.233Z,987.03
2018-04-15T06:15:48.440Z,987.06
2018-04-15T06:16:48.658Z,987.12
2018-04-15T06:17:48.865Z,987.14
2018-04-15T06:18:49.082Z,987.11
2018-04-15T06:19:49.307Z,987.11
2018-04-15T06:20:49.501Z,987.11
2018-04-15T06:21:49.717Z,987.08
2018-04-15T06:22:49.930Z,987.10
2018-04-15T06:23:50.143Z,987.07
2018-04-15T06:24:50.366Z,987.06
2018-04-15T06:25:52.301Z,987.13
2018-04-15T06:26:50.783Z,987.10
2018-04-15T06:27:50.993Z,987.09
2018-04-15T06:28:51.199Z,987.09
2018-04-15T06:29:51.413Z,987.03
2018-04-15T06:30:51.639Z,987.05
2018-04-15T06:31:54.797Z,987.05
2018-04-15T06:32:52.028Z,987.02
2018-04-15T06:33:52.208Z,987.01
2018-04-15T06:34:52.416Z,987.03
2018-04-15T06:35:52.640Z,987.03
2018-04-15T06:36:52.871Z,987.06
2018-04-15T06:37:54.792Z,987.04
2018-04-15T06:38:53.261Z,987.01
2018-04-15T06:39:53.477Z,986.97
2018-04-15T06:40:53.697Z,987.00
2018-04-15T06:41:55.793Z,986.99
2018-04-15T06:42:54.121Z,987.00
2018-04-15T06:43:56.292Z,987.03
2018-04-15T06:44:54.518Z,987.06
2018-04-15T06:45:54.743Z,987.08
2018-04-15T06:46:54.962Z,987.06
2018-04-15T06:47:55.181Z,987.10
2018-04-15T06:48:55.401Z,987.12
2018-04-15T06:49:55.595Z,987.08
2018-04-15T06:50:55.811Z,987.07
2018-04-15T06:51:57.797Z,987.01
2018-04-15T06:52:56.257Z,987.06
2018-04-15T06:53:58.292Z,987.01
2018-04-15T06:54:56.624Z,986.95
2018-04-15T06:55:58.802Z,986.97
2018-04-15T06:56:58.811Z,986.97
2018-04-15T06:57:57.143Z,986.95
2018-04-15T06:58:57.383Z,986.93
2018-04-15T06:59:57.577Z,986.91
2018-04-15T07:00:57.792Z,986.91
2018-04-15T07:01:57.994Z,986.87
2018-04-15T07:02:58.215Z,986.87
2018-04-15T07:03:58.418Z,986.84
2018-04-15T07:05:02.293Z,986.86
2018-04-15T07:05:58.761Z,986.85
2018-04-15T07:06:58.987Z,986.88
2018-04-15T07:07:59.191Z,986.89
2018-04-15T07:09:01.296Z,986.88
2018-04-15T07:09:59.636Z,986.91
2018-04-15T07:10:59.853Z,986.88
2018-04-15T07:12:02.808Z,986.89
2018-04-15T07:13:00.271Z,986.86
2018-04-15T07:14:00.494Z,986.87
2018-04-15T07:15:00.701Z,986.90
2018-04-15T07:16:02.793Z,986.89
2018-04-15T07:17:01.144Z,986.91
2018-04-15T07:18:01.361Z,986.92
2018-04-15T07:19:03.297Z,986.96
2018-04-15T07:20:01.755Z,986.95
2018-04-15T07:21:01.958Z,986.94
2018-04-15T07:22:02.179Z,986.98
2018-04-15T07:23:02.381Z,986.97
2018-04-15T07:24:04.295Z,986.96
2018-04-15T07:25:02.769Z,986.99
2018-04-15T07:26:02.975Z,987.00
2018-04-15T07:27:03.179Z,987.03
2018-04-15T07:28:05.296Z,987.06
2018-04-15T07:29:03.509Z,987.06
2018-04-15T07:30:03.729Z,987.07
2018-04-15T07:31:03.946Z,987.08
2018-04-15T07:32:04.147Z,987.12
2018-04-15T07:33:04.365Z,987.11
2018-04-15T07:34:04.601Z,987.12
2018-04-15T07:35:06.802Z,987.15
2018-04-15T07:36:05.031Z,987.15
2018-04-15T07:37:05.237Z,987.14
2018-04-15T07:38:07.295Z,987.14
2018-04-15T07:39:07.295Z,987.16
2018-04-15T07:40:05.770Z,987.18
2018-04-15T07:41:05.991Z,987.18
2018-04-15T07:42:07.798Z,987.10
2018-04-15T07:43:06.393Z,987.14
2018-04-15T07:44:10.295Z,987.12
2018-04-15T07:45:06.771Z,987.11
2018-04-15T07:46:06.999Z,987.08
2018-04-15T07:47:07.224Z,987.12
2018-04-15T07:48:07.442Z,987.11
2018-04-15T07:49:07.654Z,987.09
2018-04-15T07:50:07.868Z,987.07
2018-04-15T07:51:08.088Z,987.10
2018-04-15T07:52:08.310Z,987.07
2018-04-15T07:53:10.300Z,987.04
2018-04-15T07:54:08.750Z,987.01
2018-04-15T07:55:10.799Z,987.05
2018-04-15T07:56:09.134Z,987.04
2018-04-15T07:57:09.338Z,987.10
2018-04-15T07:58:09.559Z,987.06
2018-04-15T07:59:11.299Z,987.05
2018-04-15T08:00:11.030Z,987.05
2018-04-15T08:01:10.248Z,987.02
2018-04-15T08:02:10.447Z,986.98
2018-04-15T08:03:10.685Z,986.96
2018-04-15T08:04:10.895Z,987.00
2018-04-15T08:05:11.116Z,987.01
2018-04-15T08:06:13.307Z,987.03
2018-04-15T08:07:11.536Z,987.03
2018-04-15T08:08:11.762Z,987.03
2018-04-15T08:09:11.961Z,987.04
2018-04-15T08:10:12.170Z,987.05
2018-04-15T08:11:12.392Z,987.02
2018-04-15T08:12:12.605Z,986.99
2018-04-15T08:13:12.816Z,986.97
2018-04-15T08:14:14.806Z,986.97
2018-04-15T08:15:13.267Z,986.94
2018-04-15T08:16:13.479Z,986.98
2018-04-15T08:17:15.311Z,986.95
2018-04-15T08:18:13.886Z,986.90
2018-04-15T08:19:14.122Z,986.90
2018-04-15T08:20:18.305Z,986.89
2018-04-15T08:21:16.297Z,986.86
2018-04-15T08:22:16.301Z,986.86
2018-04-15T08:23:16.300Z,986.84
2018-04-15T08:24:14.881Z,986.84
2018-04-15T08:25:15.146Z,986.80
2018-04-15T08:26:15.312Z,986.77
2018-04-15T08:27:15.519Z,986.77
2018-04-15T08:28:15.739Z,986.75
2018-04-15T08:29:18.799Z,986.73
2018-04-15T08:30:16.143Z,986.74
2018-04-15T08:31:16.354Z,986.70
2018-04-15T08:32:16.568Z,986.68
2018-04-15T08:33:18.309Z,986.69
2018-04-15T08:34:17.012Z,986.67
2018-04-15T08:35:17.258Z,986.69
2018-04-15T08:36:17.453Z,986.75
2018-04-15T08:37:17.675Z,986.77
2018-04-15T08:38:17.894Z,986.76
2018-04-15T08:39:18.112Z,986.80
2018-04-15T08:40:18.335Z,986.78
2018-04-15T08:41:18.546Z,986.78
2018-04-15T08:42:18.770Z,986.76
2018-04-15T08:43:21.368Z,986.69
2018-04-15T08:44:19.211Z,986.68
2018-04-15T08:45:19.425Z,986.68
2018-04-15T08:46:19.645Z,986.64
2018-04-15T08:47:21.812Z,986.56
2018-04-15T08:48:20.025Z,986.62
2018-04-15T08:49:20.237Z,986.61
2018-04-15T08:50:21.465Z,986.61
2018-04-15T08:51:20.667Z,986.63
2018-04-15T08:52:20.884Z,986.64
2018-04-15T08:53:21.102Z,986.65
2018-04-15T08:54:21.315Z,986.61
2018-04-15T08:55:21.543Z,986.70
2018-04-15T08:56:21.751Z,986.57
2018-04-15T08:57:21.966Z,986.48
2018-04-15T08:58:22.181Z,986.48
2018-04-15T08:59:25.306Z,986.47
2018-04-15T09:00:22.533Z,986.57
2018-04-15T09:01:22.755Z,986.54
2018-04-15T09:02:22.971Z,986.48
2018-04-15T09:03:23.187Z,986.44
2018-04-15T09:04:23.397Z,986.44
2018-04-15T09:05:23.610Z,986.51
2018-04-15T09:06:23.833Z,986.65
2018-04-15T09:07:24.045Z,986.49
2018-04-15T09:08:24.272Z,986.48
2018-04-15T09:09:24.500Z,986.39
2018-04-15T09:10:24.718Z,986.56
2018-04-15T09:11:24.939Z,986.27
2018-04-15T09:12:25.170Z,986.27
2018-04-15T09:13:26.639Z,986.15
2018-04-15T09:14:27.320Z,986.65
2018-04-15T09:15:25.797Z,986.31
2018-04-15T09:16:27.803Z,986.37
2018-04-15T09:17:26.156Z,986.41
2018-04-15T09:18:28.305Z,986.45
2018-04-15T09:19:26.535Z,986.60
2018-04-15T09:20:26.748Z,986.62
2018-04-15T09:21:26.962Z,986.40
2018-04-15T09:22:27.192Z,986.64
2018-04-15T09:23:27.446Z,986.64
2018-04-15T09:24:27.643Z,986.41
2018-04-15T09:25:30.807Z,986.36
2018-04-15T09:26:31.806Z,986.32
2018-04-15T09:27:28.160Z,986.36
2018-04-15T09:28:36.307Z,986.73
2018-04-15T09:29:29.532Z,986.72
2018-04-15T09:30:29.763Z,986.69
2018-04-15T09:31:28.975Z,986.72
2018-04-15T09:32:29.235Z,986.47
2018-04-15T09:33:37.303Z,986.55
2018-04-15T09:34:29.645Z,986.56
2018-04-15T09:35:37.874Z,986.44
2018-04-15T09:36:30.034Z,986.48
2018-04-15T09:37:30.265Z,986.36
2018-04-15T09:38:34.353Z,986.39
2018-04-15T09:39:51.715Z,986.31
2018-04-15T09:40:30.918Z,986.31
2018-04-15T09:41:33.803Z,986.30
2018-04-15T09:42:31.324Z,986.30
2018-04-15T09:43:32.267Z,986.30
2018-04-15T09:44:35.309Z,986.33
2018-04-15T09:45:31.815Z,986.26
2018-04-15T09:46:31.938Z,986.30
2018-04-15T09:47:35.822Z,986.36
2018-04-15T09:48:34.297Z,986.34
2018-04-15T09:49:34.342Z,986.34
2018-04-15T09:50:32.692Z,986.28
2018-04-15T09:53:04.737Z,986.30
2018-04-15T09:54:05.521Z,986.19
2018-04-15T09:55:05.120Z,986.09
2018-04-15T09:56:05.349Z,986.07
2018-04-15T09:57:05.540Z,986.26
2018-04-15T09:58:10.647Z,986.20
2018-04-15T09:59:07.555Z,986.05
2018-04-15T10:00:08.806Z,986.13
2018-04-15T10:01:27.253Z,986.06
2018-04-15T10:02:07.501Z,986.17
2018-04-15T10:03:06.633Z,986.17
2018-04-15T10:04:08.588Z,986.14
2018-04-15T10:05:09.536Z,986.12
2018-04-15T10:06:08.529Z,986.06
2018-04-15T10:07:07.254Z,986.16
2018-04-15T10:08:09.087Z,986.06
2018-04-15T10:09:09.546Z,986.07
2018-04-15T10:10:09.494Z,986.08
2018-04-15T10:11:08.127Z,986.10
2018-04-15T10:12:10.049Z,986.00
2018-04-15T10:13:12.440Z,986.09
2018-04-15T10:14:20.535Z,986.05
2018-04-15T10:15:10.555Z,986.01
2018-04-15T10:16:10.538Z,986.05
2018-04-15T10:17:09.263Z,986.00
2018-04-15T10:18:10.526Z,986.06
2018-04-15T10:19:10.723Z,986.00
2018-04-15T10:20:09.839Z,986.01
2018-04-15T10:21:16.052Z,986.02
2018-04-15T10:22:10.301Z,986.06
2018-04-15T10:23:12.035Z,986.07
2018-04-15T10:24:15.502Z,986.05
2018-04-15T10:25:12.539Z,986.05
2018-04-15T10:26:11.065Z,986.03
2018-04-15T10:27:13.049Z,986.02
2018-04-15T10:28:13.035Z,986.01
2018-04-15T10:29:15.547Z,986.02
2018-04-15T10:30:19.542Z,986.04
2018-04-15T10:31:12.159Z,986.03
2018-04-15T10:32:14.033Z,985.97
2018-04-15T10:33:14.034Z,985.90
2018-04-15T10:34:12.643Z,985.96
2018-04-15T10:35:16.555Z,985.90
2018-04-15T10:36:14.553Z,985.81
2018-04-15T10:37:17.033Z,985.77
2018-04-15T10:38:15.211Z,985.78
2018-04-15T10:39:15.554Z,985.80
2018-04-15T10:40:13.883Z,985.78
2018-04-15T10:41:30.037Z,985.78
2018-04-15T10:42:21.038Z,985.67
2018-04-15T10:43:15.157Z,985.74
2018-04-15T10:44:16.534Z,985.75
2018-04-15T10:45:16.552Z,985.77
2018-04-15T10:46:14.925Z,985.74
2018-04-15T10:47:16.000Z,985.76
2018-04-15T10:48:20.039Z,985.76
2018-04-15T10:49:17.042Z,985.77
2018-04-15T10:50:15.632Z,985.77
2018-04-15T10:51:18.540Z,985.75
2018-04-15T10:52:16.041Z,985.77
2018-04-15T10:53:16.305Z,985.75
2018-04-15T10:54:18.051Z,985.76
2018-04-15T10:55:18.540Z,985.79
2018-04-15T10:56:18.582Z,985.79
2018-04-15T10:57:16.938Z,985.80
2018-04-15T10:58:23.259Z,985.82
2018-04-15T10:59:21.037Z,985.80
2018-04-15T11:00:29.557Z,985.78
2018-04-15T11:01:18.830Z,985.75
2018-04-15T11:02:20.506Z,985.74
2018-04-15T11:03:30.042Z,985.72
2018-04-15T11:04:20.044Z,985.74
2018-04-15T11:05:18.430Z,985.74
2018-04-15T11:06:20.064Z,985.66
2018-04-15T11:07:21.561Z,985.54
2018-04-15T11:08:19.082Z,985.56
2018-04-15T11:09:21.047Z,985.52
2018-04-15T11:10:20.491Z,985.52
2018-04-15T11:11:22.540Z,985.59
2018-04-15T11:12:19.753Z,985.47
2018-04-15T11:13:22.558Z,985.60
2018-04-15T11:14:20.182Z,985.46
2018-04-15T11:15:22.036Z,985.42
2018-04-15T11:16:25.091Z,985.36
2018-04-15T11:17:22.550Z,985.34
2018-04-15T11:18:20.923Z,985.27
2018-04-15T11:19:23.049Z,985.23
2018-04-15T11:20:21.308Z,985.26
2018-04-15T11:21:21.539Z,985.22
2018-04-15T11:22:23.567Z,985.23
2018-04-15T11:23:25.539Z,985.21
2018-04-15T11:24:24.041Z,985.22
2018-04-15T11:25:26.055Z,985.19
2018-04-15T11:26:24.067Z,985.22
2018-04-15T11:27:26.540Z,985.20
2018-04-15T11:28:24.538Z,985.15
2018-04-15T11:29:24.551Z,985.14
2018-04-15T11:30:25.056Z,985.12
2018-04-15T11:31:25.037Z,985.13
2018-04-15T11:32:27.076Z,985.12
2018-04-15T11:33:23.799Z,985.06
2018-04-15T11:34:25.548Z,985.07
2018-04-15T11:35:24.168Z,985.10
2018-04-15T11:36:26.043Z,985.08
2018-04-15T11:37:24.576Z,985.07
2018-04-15T11:38:26.871Z,985.08
2018-04-15T11:39:24.908Z,985.05
2018-04-15T11:40:25.129Z,985.04
2018-04-15T11:41:27.045Z,984.99
2018-04-15T11:42:29.039Z,985.00
2018-04-15T11:43:27.548Z,984.94
2018-04-15T11:44:27.540Z,984.98
2018-04-15T11:45:29.043Z,984.97
2018-04-15T11:46:28.041Z,984.92
2018-04-15T11:47:28.057Z,984.93
2018-04-15T11:48:28.805Z,984.89
2018-04-15T11:49:28.600Z,984.88
2018-04-15T11:50:28.557Z,984.82
2018-04-15T11:51:27.152Z,984.86
2018-04-15T11:52:27.642Z,984.77
2018-04-15T11:53:29.547Z,984.79
2018-04-15T11:54:27.776Z,984.79
2018-04-15T11:55:27.895Z,984.84
2018-04-15T11:56:36.055Z,984.78
2018-04-15T11:57:30.043Z,984.78
2018-04-15T11:58:30.101Z,984.76
2018-04-15T11:59:31.075Z,984.68
2018-04-15T12:00:28.645Z,984.74
2018-04-15T12:01:38.408Z,984.69
2018-04-15T12:02:32.072Z,984.68
2018-04-15T12:03:30.847Z,984.68
2018-04-15T12:04:30.854Z,984.68
2018-04-15T12:05:31.598Z,984.64
2018-04-15T12:06:32.150Z,984.79
2018-04-15T12:07:32.361Z,984.66
2018-04-15T12:08:31.566Z,984.66
2018-04-15T12:09:32.068Z,984.86
2018-04-15T12:10:30.292Z,984.80
2018-04-15T12:11:30.541Z,984.73
2018-04-15T12:12:32.550Z,984.71
2018-04-15T12:13:30.891Z,984.70
2018-04-15T12:14:31.099Z,984.63
2018-04-15T12:15:34.048Z,984.58
2018-04-15T12:16:33.046Z,984.61
2018-04-15T12:17:31.639Z,984.57
2018-04-15T12:18:31.864Z,984.56
2018-04-15T12:19:34.151Z,984.52
2018-04-15T12:20:34.084Z,984.53
2018-04-15T12:21:34.044Z,984.53
2018-04-15T12:22:40.542Z,984.57
2018-04-15T12:23:36.565Z,984.50
2018-04-15T12:24:34.552Z,984.50
2018-04-15T12:25:34.159Z,984.51
2018-04-15T12:26:33.389Z,984.45
2018-04-15T12:27:35.733Z,984.45
2018-04-15T12:28:40.102Z,984.42
2018-04-15T12:29:37.555Z,984.44
2018-04-15T12:30:36.085Z,984.39
2018-04-15T12:31:34.300Z,984.39
2018-04-15T12:32:35.928Z,984.35